createdAt,value
2023-01-29T20:00:01.180Z,97799.91
2023-01-29T20:03:28.833Z,97799.75
2023-01-29T20:05:32.918Z,97799.50
2023-01-29T20:07:36.728Z,97800.72
2023-01-29T20:09:41.295Z,97807.78
2023-01-29T20:11:45.169Z,97801.16
2023-01-29T20:13:49.781Z,97806.09
2023-01-29T20:15:53.807Z,97812.97
2023-01-29T20:17:58.705Z,97809.19
2023-01-29T20:20:04.099Z,97804.84
2023-01-29T20:22:07.955Z,97809.88
2023-01-29T20:24:13.017Z,97808.75
2023-01-29T20:26:17.436Z,97809.28
2023-01-29T20:28:21.295Z,97814.41
2023-01-29T20:30:25.197Z,97824.78
2023-01-29T20:32:29.695Z,97821.41
2023-01-29T20:34:33.526Z,97822.53
2023-01-29T20:36:38.712Z,97821.91
2023-01-29T20:38:42.597Z,97821.88
2023-01-29T20:40:46.380Z,97821.31
2023-01-29T20:45:35.963Z,97832.56
2023-01-29T20:47:40.032Z,97837.38
2023-01-29T20:49:43.960Z,97839.72
2023-01-29T20:51:47.821Z,97840.03
2023-01-29T20:53:51.782Z,97828.75
2023-01-29T20:55:55.784Z,97829.56
2023-01-29T20:58:06.546Z,97831.75
2023-01-29T21:00:13.130Z,97821.16
2023-01-29T21:02:18.576Z,97830.13
2023-01-29T21:04:22.713Z,97836.06
2023-01-29T21:06:29.321Z,97840.84
2023-01-29T21:08:33.451Z,97840.06
2023-01-29T21:10:37.294Z,97835.91
2023-01-29T21:12:41.142Z,97845.34
2023-01-29T21:14:45.033Z,97876.19
2023-01-29T21:16:48.948Z,97856.81
2023-01-29T21:18:56.622Z,97843.13
2023-01-29T21:21:00.428Z,97838.84
2023-01-29T21:23:06.967Z,97831.97
2023-01-29T21:25:11.346Z,97831.78
2023-01-29T21:27:15.207Z,97834.41
2023-01-29T21:29:19.100Z,97826.59
2023-01-29T21:31:23.051Z,97832.59
2023-01-29T21:33:26.936Z,97834.50
2023-01-29T21:35:32.650Z,97825.16
2023-01-29T21:37:38.437Z,97834.78
2023-01-29T21:39:42.309Z,97829.81
2023-01-29T21:42:04.690Z,97830.00
2023-01-29T21:44:08.821Z,97831.91
2023-01-29T21:46:12.682Z,97831.91
2023-01-29T21:48:16.567Z,97834.00
2023-01-29T21:50:20.688Z,97829.75
2023-01-29T21:52:25.979Z,97830.19
2023-01-29T21:54:31.120Z,97831.22
2023-01-29T21:56:34.954Z,97828.34
2023-01-29T21:58:38.793Z,97825.34
2023-01-29T22:00:42.614Z,97823.41
2023-01-29T22:02:46.753Z,97819.56
2023-01-29T22:04:52.228Z,97824.38
2023-01-29T22:06:56.175Z,97819.16
2023-01-29T22:09:01.480Z,97820.94
2023-01-29T22:11:07.065Z,97811.72
2023-01-29T22:13:11.174Z,97819.03
2023-01-29T22:15:15.297Z,97807.63
2023-01-29T22:17:20.125Z,97810.38
2023-01-29T22:19:25.129Z,97806.66
2023-01-29T22:21:28.952Z,97811.22
2023-01-29T22:23:32.998Z,97811.88
2023-01-29T22:25:38.184Z,97816.44
2023-01-29T22:27:41.990Z,97807.91
2023-01-29T22:29:45.828Z,97812.97
2023-01-29T22:31:49.630Z,97814.22
2023-01-29T22:33:54.047Z,97809.97
2023-01-29T22:35:57.876Z,97802.94
2023-01-29T22:38:01.722Z,97799.25
2023-01-29T22:40:06.787Z,97801.16
2023-01-29T22:42:11.920Z,97788.22
2023-01-29T22:44:15.809Z,97782.19
2023-01-29T22:46:19.651Z,97785.78
2023-01-29T22:48:24.160Z,97778.88
2023-01-29T22:50:28.027Z,97775.59
2023-01-29T22:52:38.319Z,97765.28
2023-01-29T22:54:43.290Z,97767.19
2023-01-29T22:56:47.178Z,97770.22
2023-01-29T22:58:52.774Z,97763.91
2023-01-29T23:00:56.603Z,97759.78
2023-01-29T23:03:00.583Z,97759.91
2023-01-29T23:05:04.771Z,97768.19
2023-01-29T23:07:08.569Z,97765.81
2023-01-29T23:09:12.399Z,97759.94
2023-01-29T23:11:19.823Z,97759.91
2023-01-29T23:13:23.626Z,97759.38
2023-01-29T23:15:29.185Z,97758.41
2023-01-29T23:17:33.066Z,97757.84
2023-01-29T23:19:36.860Z,97753.44
2023-01-29T23:21:40.874Z,97758.69
2023-01-29T23:23:45.231Z,97751.53
2023-01-29T23:26:06.497Z,97748.53
2023-01-29T23:28:10.374Z,97754.84
2023-01-29T23:30:14.919Z,97754.84
2023-01-29T23:32:21.544Z,97757.47
2023-01-29T23:34:25.444Z,97753.44
2023-01-29T23:36:29.313Z,97758.69
2023-01-29T23:38:33.204Z,97751.25
2023-01-29T23:40:37.020Z,97749.75
2023-01-29T23:42:40.832Z,97757.47
2023-01-29T23:44:44.672Z,97758.41
2023-01-29T23:46:48.841Z,97747.03
2023-01-29T23:48:54.052Z,97745.91
2023-01-29T23:50:57.858Z,97737.81
2023-01-29T23:53:01.685Z,97738.50
2023-01-29T23:55:06.710Z,97737.13
2023-01-29T23:57:10.527Z,97739.59
2023-01-29T23:59:15.057Z,97735.47
